sensor_id;sensor_type;location;lat;lon;timestamp;pressure;altitude;pressure_sealevel;temperature;humidity
49451;BME280;35336;48.400;10.886;2022-09-24T00:00:13;96040.38;;;10.28;93.00
49451;BME280;35336;48.400;10.886;2022-09-24T00:00:30;96018.19;;;10.14;92.60
49451;BME280;35336;48.400;10.886;2022-09-24T00:00:46;96005.69;;;10.08;93.00
49451;BME280;35336;48.400;10.886;2022-09-24T00:01:12;96036.06;;;10.27;92.53
49451;BME280;35336;48.400;10.886;2022-09-24T00:01:30;96039.56;;;10.27;92.66
49451;BME280;35336;48.400;10.886;2022-09-24T00:01:46;96007.97;;;10.11;92.69
49451;BME280;35336;48.400;10.886;2022-09-24T00:02:02;96011.63;;;10.10;92.69
49451;BME280;35336;48.400;10.886;2022-09-24T00:02:18;96034.22;;;10.21;92.66
49451;BME280;35336;48.400;10.886;2022-09-24T00:02:33;96039.75;;;10.26;92.52
49451;BME280;35336;48.400;10.886;2022-09-24T00:02:49;96031.97;;;10.24;92.55
49451;BME280;35336;48.400;10.886;2022-09-24T00:03:04;96016.16;;;10.16;92.37
49451;BME280;35336;48.400;10.886;2022-09-24T00:03:21;96034.41;;;10.26;92.42
49451;BME280;35336;48.400;10.886;2022-09-24T00:03:39;95991.53;;;9.94;92.43
49451;BME280;35336;48.400;10.886;2022-09-24T00:03:57;95997.69;;;10.01;92.41
49451;BME280;35336;48.400;10.886;2022-09-24T00:04:14;96013.50;;;10.09;92.93
49451;BME280;35336;48.400;10.886;2022-09-24T00:04:29;96009.19;;;10.08;92.79
49451;BME280;35336;48.400;10.886;2022-09-24T00:04:45;96030.91;;;10.18;92.50
49451;BME280;35336;48.400;10.886;2022-09-24T00:05:01;96032.97;;;10.16;92.96
49451;BME280;35336;48.400;10.886;2022-09-24T00:05:16;96007.94;;;10.04;92.96
49451;BME280;35336;48.400;10.886;2022-09-24T00:05:37;96029.28;;;10.17;92.88
49451;BME280;35336;48.400;10.886;2022-09-24T00:05:53;96014.94;;;10.12;92.55
49451;BME280;35336;48.400;10.886;2022-09-24T00:06:08;96028.50;;;10.24;92.68
49451;BME280;35336;48.400;10.886;2022-09-24T00:06:24;96018.63;;;10.11;92.58
49451;BME280;35336;48.400;10.886;2022-09-24T00:06:42;96014.94;;;10.12;92.55
49451;BME280;35336;48.400;10.886;2022-09-24T00:06:58;96030.91;;;10.18;92.67
49451;BME280;35336;48.400;10.886;2022-09-24T00:07:13;96029.28;;;10.24;92.85
49451;BME280;35336;48.400;10.886;2022-09-24T00:07:29;96028.06;;;10.27;92.96
49451;BME280;35336;48.400;10.886;2022-09-24T00:07:44;96015.34;;;10.15;92.63
49451;BME280;35336;48.400;10.886;2022-09-24T00:07:59;95981.47;;;9.96;92.79
49451;BME280;35336;48.400;10.886;2022-09-24T00:08:15;96011.25;;;10.13;92.85
49451;BME280;35336;48.400;10.886;2022-09-24T00:08:32;96005.09;;;10.12;92.83
49451;BME280;35336;48.400;10.886;2022-09-24T00:08:49;96028.50;;;10.24;92.84
49451;BME280;35336;48.400;10.886;2022-09-24T00:09:05;96021.50;;;10.23;92.73
49451;BME280;35336;48.400;10.886;2022-09-24T00:09:21;96017.81;;;10.17;92.58
49451;BME280;35336;48.400;10.886;2022-09-24T00:09:36;96011.03;;;10.14;92.75
49451;BME280;35336;48.400;10.886;2022-09-24T00:09:52;96015.34;;;10.15;92.79
49451;BME280;35336;48.400;10.886;2022-09-24T00:10:07;96008.16;;;10.16;92.72
49451;BME280;35336;48.400;10.886;2022-09-24T00:10:23;96009.59;;;10.18;92.71
49451;BME280;35336;48.400;10.886;2022-09-24T00:10:40;96026.41;;;10.26;92.62
49451;BME280;35336;48.400;10.886;2022-09-24T00:10:55;96004.06;;;10.13;92.22
49451;BME280;35336;48.400;10.886;2022-09-24T00:11:12;96022.75;;;10.27;92.43
49451;BME280;35336;48.400;10.886;2022-09-24T00:11:28;96005.13;;;10.19;92.62
49451;BME280;35336;48.400;10.886;2022-09-24T00:11:43;96025.81;;;10.30;92.26
49451;BME280;35336;48.400;10.886;2022-09-24T00:11:59;96039.78;;;10.32;92.42
49451;BME280;35336;48.400;10.886;2022-09-24T00:12:17;95977.63;;;9.98;91.95
49451;BME280;35336;48.400;10.886;2022-09-24T00:12:32;96013.53;;;10.23;92.14
49451;BME280;35336;48.400;10.886;2022-09-24T00:12:48;96012.50;;;10.24;92.30
49451;BME280;35336;48.400;10.886;2022-09-24T00:13:06;96022.75;;;10.27;92.20
49451;BME280;35336;48.400;10.886;2022-09-24T00:13:22;95988.91;;;10.07;92.16
49451;BME280;35336;48.400;10.886;2022-09-24T00:13:38;96010.44;;;10.19;92.27
49451;BME280;35336;48.400;10.886;2022-09-24T00:13:55;96020.50;;;10.30;92.00
49451;BME280;35336;48.400;10.886;2022-09-24T00:14:11;95999.75;;;10.12;92.27
49451;BME280;35336;48.400;10.886;2022-09-24T00:14:27;96020.50;;;10.30;92.18
49451;BME280;35336;48.400;10.886;2022-09-24T00:14:42;96003.25;;;10.20;92.33
49451;BME280;35336;48.400;10.886;2022-09-24T00:14:57;96005.91;;;10.20;92.31
49451;BME280;35336;48.400;10.886;2022-09-24T00:15:13;96004.28;;;10.18;91.94
49451;BME280;35336;48.400;10.886;2022-09-24T00:15:28;95972.28;;;9.98;92.02
49451;BME280;35336;48.400;10.886;2022-09-24T00:15:47;96003.06;;;10.14;92.31
49451;BME280;35336;48.400;10.886;2022-09-24T00:16:06;95981.31;;;9.97;92.25
49451;BME280;35336;48.400;10.886;2022-09-24T00:16:24;96011.88;;;10.22;92.04
49451;BME280;35336;48.400;10.886;2022-09-24T00:16:40;96006.94;;;10.18;92.24
49451;BME280;35336;48.400;10.886;2022-09-24T00:16:56;96015.56;;;10.21;92.02
49451;BME280;35336;48.400;10.886;2022-09-24T00:17:12;95998.94;;;10.18;92.20
49451;BME280;35336;48.400;10.886;2022-09-24T00:17:27;96025.81;;;10.30;92.28
49451;BME280;35336;48.400;10.886;2022-09-24T00:17:42;95999.16;;;10.17;92.08
49451;BME280;35336;48.400;10.886;2022-09-24T00:17:58;95968.56;;;9.99;92.29
49451;BME280;35336;48.400;10.886;2022-09-24T00:18:15;96020.69;;;10.29;92.16
49451;BME280;35336;48.400;10.886;2022-09-24T00:18:31;95977.00;;;10.03;92.02
49451;BME280;35336;48.400;10.886;2022-09-24T00:18:46;95970.44;;;9.99;91.96
49451;BME280;35336;48.400;10.886;2022-09-24T00:19:03;95959.75;;;9.92;92.16
49451;BME280;35336;48.400;10.886;2022-09-24T00:19:19;96002.25;;;10.21;92.25
49451;BME280;35336;48.400;10.886;2022-09-24T00:19:34;96021.94;;;10.26;92.19
49451;BME280;35336;48.400;10.886;2022-09-24T00:19:50;96010.03;;;10.15;92.69
49451;BME280;35336;48.400;10.886;2022-09-24T00:20:06;95993.63;;;10.12;92.54
49451;BME280;35336;48.400;10.886;2022-09-24T00:20:21;95999.75;;;10.12;92.57
49451;BME280;35336;48.400;10.886;2022-09-24T00:20:37;96019.44;;;10.25;92.69
49451;BME280;35336;48.400;10.886;2022-09-24T00:20:53;96000.59;;;10.13;92.82
49451;BME280;35336;48.400;10.886;2022-09-24T00:21:20;95997.50;;;10.09;93.14
49451;BME280;35336;48.400;10.886;2022-09-24T00:21:37;96021.31;;;10.24;92.89
49451;BME280;35336;48.400;10.886;2022-09-24T00:21:52;96023.97;;;10.24;92.88
49451;BME280;35336;48.400;10.886;2022-09-24T00:22:08;95996.88;;;10.14;93.20
49451;BME280;35336;48.400;10.886;2022-09-24T00:22:24;95971.88;;;9.95;92.92
49451;BME280;35336;48.400;10.886;2022-09-24T00:22:39;96005.72;;;10.14;92.84
49451;BME280;35336;48.400;10.886;2022-09-24T00:22:54;95990.97;;;10.12;92.97
49451;BME280;35336;48.400;10.886;2022-09-24T00:23:10;96019.44;;;10.25;93.11
49451;BME280;35336;48.400;10.886;2022-09-24T00:23:26;96007.56;;;10.21;93.08
49451;BME280;35336;48.400;10.886;2022-09-24T00:23:42;96014.13;;;10.25;92.97
49451;BME280;35336;48.400;10.886;2022-09-24T00:24:01;96015.75;;;10.26;92.82
49451;BME280;35336;48.400;10.886;2022-09-24T00:24:17;95986.22;;;10.07;92.79
49451;BME280;35336;48.400;10.886;2022-09-24T00:24:51;95976.56;;;9.99;92.93
49451;BME280;35336;48.400;10.886;2022-09-24T00:25:25;96011.47;;;10.25;93.23
49451;BME280;35336;48.400;10.886;2022-09-24T00:26:00;96009.63;;;10.25;93.32
49451;BME280;35336;48.400;10.886;2022-09-24T00:26:34;96015.75;;;10.26;93.17
49451;BME280;35336;48.400;10.886;2022-09-24T00:27:05;96012.50;;;10.24;93.12
49451;BME280;35336;48.400;10.886;2022-09-24T00:27:20;96007.78;;;10.19;93.49
49451;BME280;35336;48.400;10.886;2022-09-24T00:27:36;95994.22;;;10.14;93.42
49451;BME280;35336;48.400;10.886;2022-09-24T00:27:51;95992.78;;;10.11;93.15
49451;BME280;35336;48.400;10.886;2022-09-24T00:28:06;96013.94;;;10.26;93.61
49451;BME280;35336;48.400;10.886;2022-09-24T00:28:23;96012.91;;;10.27;93.20
49451;BME280;35336;48.400;10.886;2022-09-24T00:28:38;96000.19;;;10.16;93.54
49451;BME280;35336;48.400;10.886;2022-09-24T00:28:53;95995.69;;;10.16;93.34
49451;BME280;35336;48.400;10.886;2022-09-24T00:29:12;95996.88;;;10.14;93.64
49451;BME280;35336;48.400;10.886;2022-09-24T00:29:28;96003.06;;;10.14;93.76
49451;BME280;35336;48.400;10.886;2022-09-24T00:29:46;95995.66;;;10.10;93.50
49451;BME280;35336;48.400;10.886;2022-09-24T00:30:01;96017.59;;;10.18;93.55
49451;BME280;35336;48.400;10.886;2022-09-24T00:30:16;96005.72;;;10.14;93.98
49451;BME280;35336;48.400;10.886;2022-09-24T00:30:32;95998.94;;;10.05;93.39
49451;BME280;35336;48.400;10.886;2022-09-24T00:30:47;96006.53;;;10.08;94.15
49451;BME280;35336;48.400;10.886;2022-09-24T00:31:05;95992.97;;;10.03;93.95
49451;BME280;35336;48.400;10.886;2022-09-24T00:31:21;95965.25;;;9.84;93.92
49451;BME280;35336;48.400;10.886;2022-09-24T00:31:36;95993.81;;;10.10;93.96
49451;BME280;35336;48.400;10.886;2022-09-24T00:31:52;96010.41;;;10.12;94.19
49451;BME280;35336;48.400;10.886;2022-09-24T00:32:07;95978.63;;;9.97;94.14
49451;BME280;35336;48.400;10.886;2022-09-24T00:32:24;95964.06;;;9.87;93.85
49451;BME280;35336;48.400;10.886;2022-09-24T00:32:40;96009.19;;;10.15;94.22
49451;BME280;35336;48.400;10.886;2022-09-24T00:32:55;95984.16;;;10.02;94.18
49451;BME280;35336;48.400;10.886;2022-09-24T00:33:10;96008.16;;;10.16;94.08
49451;BME280;35336;48.400;10.886;2022-09-24T00:33:26;95977.00;;;9.96;93.63
49451;BME280;35336;48.400;10.886;2022-09-24T00:33:42;95962.84;;;9.89;93.75
49451;BME280;35336;48.400;10.886;2022-09-24T00:33:58;95997.31;;;10.11;93.53
49451;BME280;35336;48.400;10.886;2022-09-24T00:34:15;95996.69;;;10.15;93.51
49451;BME280;35336;48.400;10.886;2022-09-24T00:34:31;95998.75;;;10.13;93.08
49451;BME280;35336;48.400;10.886;2022-09-24T00:34:46;96000.78;;;10.11;93.05
49451;BME280;35336;48.400;10.886;2022-09-24T00:35:02;96004.69;;;10.15;93.11
49451;BME280;35336;48.400;10.886;2022-09-24T00:35:17;95989.28;;;10.04;92.99
49451;BME280;35336;48.400;10.886;2022-09-24T00:35:34;95988.06;;;10.07;93.03
49451;BME280;35336;48.400;10.886;2022-09-24T00:35:51;95976.38;;;10.01;93.29
49451;BME280;35336;48.400;10.886;2022-09-24T00:36:06;96003.06;;;10.14;92.88
49451;BME280;35336;48.400;10.886;2022-09-24T00:36:22;95986.63;;;10.04;93.06
49451;BME280;35336;48.400;10.886;2022-09-24T00:36:37;95985.81;;;10.04;92.92
49451;BME280;35336;48.400;10.886;2022-09-24T00:36:53;95978.22;;;10.00;93.13
49451;BME280;35336;48.400;10.886;2022-09-24T00:37:09;95973.31;;;9.97;93.35
49451;BME280;35336;48.400;10.886;2022-09-24T00:37:25;95940.69;;;9.82;93.07
49451;BME280;35336;48.400;10.886;2022-09-24T00:37:42;95995.06;;;10.14;93.09
49451;BME280;35336;48.400;10.886;2022-09-24T00:37:58;95975.75;;;9.99;93.21
49451;BME280;35336;48.400;10.886;2022-09-24T00:38:14;95993.19;;;10.15;92.96
49451;BME280;35336;48.400;10.886;2022-09-24T00:38:31;95996.47;;;10.10;93.05
49451;BME280;35336;48.400;10.886;2022-09-24T00:38:51;95978.03;;;10.02;93.14
49451;BME280;35336;48.400;10.886;2022-09-24T00:39:07;95980.69;;;10.02;92.93
49451;BME280;35336;48.400;10.886;2022-09-24T00:39:22;95985.41;;;10.07;93.08
49451;BME280;35336;48.400;10.886;2022-09-24T00:39:38;95994.63;;;10.11;93.02
49451;BME280;35336;48.400;10.886;2022-09-24T00:39:53;95998.75;;;10.13;93.23
49451;BME280;35336;48.400;10.886;2022-09-24T00:40:09;95993.22;;;10.08;92.85
49451;BME280;35336;48.400;10.886;2022-09-24T00:40:29;96002.63;;;10.11;92.86
49451;BME280;35336;48.400;10.886;2022-09-24T00:40:45;95947.25;;;9.79;92.92
49451;BME280;35336;48.400;10.886;2022-09-24T00:41:01;96004.06;;;10.13;92.93
49451;BME280;35336;48.400;10.886;2022-09-24T00:41:18;95948.69;;;9.82;92.97
49451;BME280;35336;48.400;10.886;2022-09-24T00:41:36;95952.16;;;9.82;93.06
49451;BME280;35336;48.400;10.886;2022-09-24T00:41:52;95980.06;;;10.00;92.98
49451;BME280;35336;48.400;10.886;2022-09-24T00:42:08;95988.69;;;10.09;93.12
49451;BME280;35336;48.400;10.886;2022-09-24T00:42:24;95985.81;;;10.04;92.96
49451;BME280;35336;48.400;10.886;2022-09-24T00:42:39;95976.19;;;10.02;92.75
49451;BME280;35336;48.400;10.886;2022-09-24T00:42:54;95993.81;;;10.10;92.73
49451;BME280;35336;48.400;10.886;2022-09-24T00:43:34;95995.44;;;10.11;92.87
49451;BME280;35336;48.400;10.886;2022-09-24T00:43:50;96002.22;;;10.14;92.83
49451;BME280;35336;48.400;10.886;2022-09-24T00:44:55;95998.94;;;10.12;92.72
49451;BME280;35336;48.400;10.886;2022-09-24T00:45:11;95955.03;;;9.88;92.53
49451;BME280;35336;48.400;10.886;2022-09-24T00:45:28;95973.72;;;10.01;93.09
49451;BME280;35336;48.400;10.886;2022-09-24T00:45:45;95969.81;;;9.97;93.14
49451;BME280;35336;48.400;10.886;2022-09-24T00:46:41;95984.59;;;10.06;92.96
49451;BME280;35336;48.400;10.886;2022-09-24T00:46:58;95992.78;;;10.11;92.82
49451;BME280;35336;48.400;10.886;2022-09-24T00:47:33;95993.63;;;10.12;92.87
49451;BME280;35336;48.400;10.886;2022-09-24T00:47:50;95973.72;;;10.01;93.26
49451;BME280;35336;48.400;10.886;2022-09-24T00:48:07;95974.31;;;9.96;92.76
49451;BME280;35336;48.400;10.886;2022-09-24T00:48:22;95973.31;;;9.97;93.28
49451;BME280;35336;48.400;10.886;2022-09-24T00:48:40;95988.69;;;10.09;92.84
49451;BME280;35336;48.400;10.886;2022-09-24T00:49:27;95966.53;;;9.95;93.04
49451;BME280;35336;48.400;10.886;2022-09-24T00:49:43;95995.66;;;10.10;93.14
49451;BME280;35336;48.400;10.886;2022-09-24T00:50:13;95994.44;;;10.12;93.10
49451;BME280;35336;48.400;10.886;2022-09-24T00:50:32;95983.56;;;10.07;93.56
49451;BME280;35336;48.400;10.886;2022-09-24T00:50:48;95994.63;;;10.11;93.04
49451;BME280;35336;48.400;10.886;2022-09-24T00:51:04;95978.63;;;10.04;93.11
49451;BME280;35336;48.400;10.886;2022-09-24T00:51:22;95992.19;;;10.09;93.13
49451;BME280;35336;48.400;10.886;2022-09-24T00:51:41;95986.63;;;10.04;93.12
49451;BME280;35336;48.400;10.886;2022-09-24T00:51:58;95938.63;;;9.77;93.14
49451;BME280;35336;48.400;10.886;2022-09-24T00:52:14;95968.16;;;9.96;93.17
49451;BME280;35336;48.400;10.886;2022-09-24T00:52:30;95983.16;;;10.04;93.19
49451;BME280;35336;48.400;10.886;2022-09-24T00:52:52;95990.34;;;10.10;93.47
49451;BME280;35336;48.400;10.886;2022-09-24T00:53:18;95983.34;;;10.09;93.68
49451;BME280;35336;48.400;10.886;2022-09-24T00:53:34;95965.09;;;9.92;93.64
49451;BME280;35336;48.400;10.886;2022-09-24T00:53:54;95987.88;;;10.08;93.63
49451;BME280;35336;48.400;10.886;2022-09-24T00:54:13;95955.03;;;9.88;93.54
49451;BME280;35336;48.400;10.886;2022-09-24T00:54:30;95994.84;;;10.09;93.53
49451;BME280;35336;48.400;10.886;2022-09-24T00:54:46;95978.63;;;9.97;93.54
49451;BME280;35336;48.400;10.886;2022-09-24T00:55:02;95977.81;;;10.04;93.49
49451;BME280;35336;48.400;10.886;2022-09-24T00:55:18;95967.56;;;9.94;93.36
49451;BME280;35336;48.400;10.886;2022-09-24T00:55:35;95955.88;;;9.88;93.45
49451;BME280;35336;48.400;10.886;2022-09-24T00:55:52;95990.53;;;10.08;93.63
49451;BME280;35336;48.400;10.886;2022-09-24T00:56:10;95985.59;;;10.05;93.15
49451;BME280;35336;48.400;10.886;2022-09-24T00:56:31;95939.88;;;9.75;93.34
49451;BME280;35336;48.400;10.886;2022-09-24T00:56:49;95990.53;;;10.08;93.43
49451;BME280;35336;48.400;10.886;2022-09-24T00:57:05;95976.56;;;9.99;93.64
49451;BME280;35336;48.400;10.886;2022-09-24T00:57:21;95970.22;;;9.94;93.38
49451;BME280;35336;48.400;10.886;2022-09-24T00:57:39;95942.72;;;9.73;93.63
49451;BME280;35336;48.400;10.886;2022-09-24T00:57:57;95986.63;;;10.04;93.49
49451;BME280;35336;48.400;10.886;2022-09-24T00:58:14;95943.53;;;9.74;93.62
49451;BME280;35336;48.400;10.886;2022-09-24T00:58:29;95969.38;;;9.93;93.38
49451;BME280;35336;48.400;10.886;2022-09-24T00:58:51;95977.19;;;9.95;93.77
49451;BME280;35336;48.400;10.886;2022-09-24T00:59:08;95973.69;;;9.94;93.65
49451;BME280;35336;48.400;10.886;2022-09-24T00:59:27;95972.25;;;9.92;93.49
49451;BME280;35336;48.400;10.886;2022-09-24T00:59:44;95965.69;;;9.88;93.60
49451;BME280;35336;48.400;10.886;2022-09-24T00:59:59;95985.59;;;9.98;93.65
49451;BME280;35336;48.400;10.886;2022-09-24T01:00:15;95968.59;;;9.93;93.52
49451;BME280;35336;48.400;10.886;2022-09-24T01:00:32;95938.59;;;9.70;93.44
49451;BME280;35336;48.400;10.886;2022-09-24T01:00:49;95967.31;;;9.89;93.63
49451;BME280;35336;48.400;10.886;2022-09-24T01:01:06;95949.91;;;9.79;93.49
49451;BME280;35336;48.400;10.886;2022-09-24T01:01:23;95977.00;;;9.96;93.36
49451;BME280;35336;48.400;10.886;2022-09-24T01:01:39;95957.09;;;9.85;93.61
49451;BME280;35336;48.400;10.886;2022-09-24T01:01:54;95980.47;;;9.97;93.42
49451;BME280;35336;48.400;10.886;2022-09-24T01:02:13;95990.31;;;10.03;93.31
49451;BME280;35336;48.400;10.886;2022-09-24T01:02:30;95959.75;;;9.85;93.46
49451;BME280;35336;48.400;10.886;2022-09-24T01:02:51;95978.81;;;9.96;93.52
49451;BME280;35336;48.400;10.886;2022-09-24T01:03:11;95954.00;;;9.89;93.53
49451;BME280;35336;48.400;10.886;2022-09-24T01:03:29;95988.69;;;10.02;93.66
49451;BME280;35336;48.400;10.886;2022-09-24T01:03:47;95993.81;;;10.04;93.60
49451;BME280;35336;48.400;10.886;2022-09-24T01:04:05;95972.88;;;10.00;93.53
49451;BME280;35336;48.400;10.886;2022-09-24T01:04:21;95961.63;;;9.92;93.54
49451;BME280;35336;48.400;10.886;2022-09-24T01:04:36;95964.28;;;9.92;93.22
49451;BME280;35336;48.400;10.886;2022-09-24T01:04:52;95970.22;;;9.94;93.08
49451;BME280;35336;48.400;10.886;2022-09-24T01:05:08;95981.09;;;9.99;93.14
49451;BME280;35336;48.400;10.886;2022-09-24T01:05:24;95966.94;;;9.92;93.23
49451;BME280;35336;48.400;10.886;2022-09-24T01:05:39;95983.97;;;10.04;92.92
49451;BME280;35336;48.400;10.886;2022-09-24T01:05:55;95981.72;;;10.01;92.80
49451;BME280;35336;48.400;10.886;2022-09-24T01:06:11;95965.28;;;9.91;93.04
49451;BME280;35336;48.400;10.886;2022-09-24T01:06:27;95983.97;;;10.04;92.94
49451;BME280;35336;48.400;10.886;2022-09-24T01:06:42;95956.06;;;9.87;92.82
49451;BME280;35336;48.400;10.886;2022-09-24T01:06:58;95967.75;;;9.92;92.70
49451;BME280;35336;48.400;10.886;2022-09-24T01:07:13;95948.47;;;9.83;93.04
49451;BME280;35336;48.400;10.886;2022-09-24T01:07:29;95983.75;;;9.99;92.66
49451;BME280;35336;48.400;10.886;2022-09-24T01:07:44;95962.22;;;9.87;92.89
49451;BME280;35336;48.400;10.886;2022-09-24T01:08:03;95966.13;;;9.91;92.76
49451;BME280;35336;48.400;10.886;2022-09-24T01:08:19;95967.75;;;9.92;93.04
49451;BME280;35336;48.400;10.886;2022-09-24T01:08:35;95991.34;;;10.02;92.79
49451;BME280;35336;48.400;10.886;2022-09-24T01:08:52;95971.47;;;9.91;92.98
49451;BME280;35336;48.400;10.886;2022-09-24T01:09:09;95982.53;;;10.01;93.03
49451;BME280;35336;48.400;10.886;2022-09-24T01:09:25;95991.13;;;9.97;93.40
49451;BME280;35336;48.400;10.886;2022-09-24T01:09:41;95983.75;;;9.99;93.18
49451;BME280;35336;48.400;10.886;2022-09-24T01:09:57;95984.13;;;9.96;93.36
49451;BME280;35336;48.400;10.886;2022-09-24T01:10:14;95975.34;;;9.95;92.92
49451;BME280;35336;48.400;10.886;2022-09-24T01:11:44;95980.06;;;10.00;93.18
49451;BME280;35336;48.400;10.886;2022-09-24T01:12:28;95965.09;;;9.92;93.31
49451;BME280;35336;48.400;10.886;2022-09-24T01:12:57;95967.94;;;9.91;93.01
49451;BME280;35336;48.400;10.886;2022-09-24T01:13:53;95985.41;;;10.00;92.89
49451;BME280;35336;48.400;10.886;2022-09-24T01:15:16;95954.44;;;9.85;93.03
49451;BME280;35336;48.400;10.886;2022-09-24T01:15:42;95961.63;;;9.92;93.05
49451;BME280;35336;48.400;10.886;2022-09-24T01:17:40;95946.22;;;9.80;93.03
49451;BME280;35336;48.400;10.886;2022-09-24T01:18:43;95975.97;;;9.97;92.97
49451;BME280;35336;48.400;10.886;2022-09-24T01:20:53;95975.75;;;9.99;93.17
49451;BME280;35336;48.400;10.886;2022-09-24T01:21:56;95980.06;;;10.00;92.87
49451;BME280;35336;48.400;10.886;2022-09-24T01:23:06;95946.84;;;9.82;93.28
49451;BME280;35336;48.400;10.886;2022-09-24T01:23:40;95978.44;;;9.99;93.41
49451;BME280;35336;48.400;10.886;2022-09-24T01:29:30;95964.09;;;10.00;93.67
49451;BME280;35336;48.400;10.886;2022-09-24T01:29:52;95964.31;;;9.98;93.28
49451;BME280;35336;48.400;10.886;2022-09-24T01:30:12;95959.16;;;9.97;93.50
49451;BME280;35336;48.400;10.886;2022-09-24T01:30:30;95944.38;;;9.88;93.26
49451;BME280;35336;48.400;10.886;2022-09-24T01:30:52;95967.34;;;9.95;93.41
49451;BME280;35336;48.400;10.886;2022-09-24T01:31:30;95951.56;;;9.87;93.28
49451;BME280;35336;48.400;10.886;2022-09-24T01:32:03;95908.72;;;9.68;93.38
49451;BME280;35336;48.400;10.886;2022-09-24T01:32:52;95940.31;;;9.92;93.30
49451;BME280;35336;48.400;10.886;2022-09-24T01:33:15;95956.31;;;10.05;93.13
49451;BME280;35336;48.400;10.886;2022-09-24T01:33:33;95935.59;;;9.87;93.11
49451;BME280;35336;48.400;10.886;2022-09-24T01:33:52;95959.19;;;10.04;92.90
49451;BME280;35336;48.400;10.886;2022-09-24T01:34:09;95944.63;;;9.93;92.68
49451;BME280;35336;48.400;10.886;2022-09-24T01:34:36;95935.59;;;9.87;92.71
49451;BME280;35336;48.400;10.886;2022-09-24T01:35:04;95953.44;;;10.00;93.02
49451;BME280;35336;48.400;10.886;2022-09-24T01:35:26;95944.81;;;9.91;92.64
49451;BME280;35336;48.400;10.886;2022-09-24T01:35:46;95937.00;;;9.90;92.64
49451;BME280;35336;48.400;10.886;2022-09-24T01:36:05;95943.19;;;9.90;92.51
49451;BME280;35336;48.400;10.886;2022-09-24T01:36:23;95934.78;;;9.87;92.44
49451;BME280;35336;48.400;10.886;2022-09-24T01:36:41;95952.81;;;9.98;92.52
49451;BME280;35336;48.400;10.886;2022-09-24T01:36:59;95964.09;;;10.00;92.57
49451;BME280;35336;48.400;10.886;2022-09-24T01:37:18;95946.03;;;9.89;92.37
49451;BME280;35336;48.400;10.886;2022-09-24T01:37:37;95907.88;;;9.68;92.48
49451;BME280;35336;48.400;10.886;2022-09-24T01:38:03;95959.56;;;10.00;93.03
49451;BME280;35336;48.400;10.886;2022-09-24T01:38:27;95953.66;;;9.98;92.83
49451;BME280;35336;48.400;10.886;2022-09-24T01:38:44;95937.84;;;9.90;93.04
49451;BME280;35336;48.400;10.886;2022-09-24T01:39:03;95935.38;;;9.82;92.77
49451;BME280;35336;48.400;10.886;2022-09-24T01:39:21;95949.94;;;9.99;93.05
49451;BME280;35336;48.400;10.886;2022-09-24T01:39:37;95953.81;;;9.97;92.64
49451;BME280;35336;48.400;10.886;2022-09-24T01:39:54;95960.59;;;9.99;92.53
49451;BME280;35336;48.400;10.886;2022-09-24T01:40:11;95958.56;;;9.95;93.05
49451;BME280;35336;48.400;10.886;2022-09-24T01:40:29;95948.09;;;10.00;92.87
49451;BME280;35336;48.400;10.886;2022-09-24T01:40:45;95957.13;;;9.99;93.05
49451;BME280;35336;48.400;10.886;2022-09-24T01:41:02;95934.34;;;9.83;93.11
49451;BME280;35336;48.400;10.886;2022-09-24T01:41:18;95946.25;;;9.94;93.23
49451;BME280;35336;48.400;10.886;2022-09-24T01:41:36;95912.41;;;9.74;93.25
49451;BME280;35336;48.400;10.886;2022-09-24T01:41:53;95951.16;;;9.97;93.31
49451;BME280;35336;48.400;10.886;2022-09-24T01:42:09;95959.78;;;9.99;93.29
49451;BME280;35336;48.400;10.886;2022-09-24T01:42:28;95932.50;;;9.83;93.24
49451;BME280;35336;48.400;10.886;2022-09-24T01:42:44;95953.44;;;10.00;93.49
49451;BME280;35336;48.400;10.886;2022-09-24T01:43:01;95927.19;;;9.83;93.18
49451;BME280;35336;48.400;10.886;2022-09-24T01:43:21;95946.47;;;9.99;93.40
49451;BME280;35336;48.400;10.886;2022-09-24T01:43:38;95898.06;;;9.62;93.49
49451;BME280;35336;48.400;10.886;2022-09-24T01:43:53;95954.25;;;10.00;93.21
49451;BME280;35336;48.400;10.886;2022-09-24T01:44:09;95925.53;;;9.82;93.09
49451;BME280;35336;48.400;10.886;2022-09-24T01:44:26;95928.41;;;9.88;93.05
49451;BME280;35336;48.400;10.886;2022-09-24T01:44:42;95919.41;;;9.82;93.08
49451;BME280;35336;48.400;10.886;2022-09-24T01:45:00;95932.72;;;9.89;93.16
49451;BME280;35336;48.400;10.886;2022-09-24T01:45:16;95948.91;;;10.00;93.28
49451;BME280;35336;48.400;10.886;2022-09-24T01:45:32;95936.38;;;9.88;93.09
49451;BME280;35336;48.400;10.886;2022-09-24T01:45:49;95933.13;;;9.85;93.54
49451;BME280;35336;48.400;10.886;2022-09-24T01:46:06;95902.16;;;9.64;93.43
49451;BME280;35336;48.400;10.886;2022-09-24T01:46:22;95916.50;;;9.77;93.40
49451;BME280;35336;48.400;10.886;2022-09-24T01:46:39;95929.22;;;9.81;93.81
49451;BME280;35336;48.400;10.886;2022-09-24T01:46:55;95927.56;;;9.80;93.60
49451;BME280;35336;48.400;10.886;2022-09-24T01:47:36;95949.72;;;9.94;93.70
49451;BME280;35336;48.400;10.886;2022-09-24T01:47:51;95924.72;;;9.82;93.73
49451;BME280;35336;48.400;10.886;2022-09-24T01:48:07;95924.09;;;9.80;93.98
49451;BME280;35336;48.400;10.886;2022-09-24T01:48:23;95933.72;;;9.81;93.65
49451;BME280;35336;48.400;10.886;2022-09-24T01:48:39;95948.09;;;9.93;93.73
49451;BME280;35336;48.400;10.886;2022-09-24T01:48:55;95948.94;;;9.94;93.80
49451;BME280;35336;48.400;10.886;2022-09-24T01:49:10;95940.53;;;9.90;93.86
49451;BME280;35336;48.400;10.886;2022-09-24T01:49:26;95932.28;;;9.85;93.84
49451;BME280;35336;48.400;10.886;2022-09-24T01:49:41;95942.16;;;9.91;94.18
49451;BME280;35336;48.400;10.886;2022-09-24T01:49:56;95937.44;;;9.87;94.06
49451;BME280;35336;48.400;10.886;2022-09-24T01:50:15;95935.16;;;9.83;93.81